Time;durP1;ratioP1;P1;durP2;ratioP2;P2;SDS_P1;SDS_P2;PMS_P1;PMS_P2;Temp;Humidity;BMP_temperature;BMP_pressure;BME280_temperature;BME280_humidity;BME280_pressure;Samples;Min_cycle;Max_cycle;Signal;HPM_P1;HPM_P2
2024/01/07 00:03:18;;;;;;;4.72;2.72;;;7.80;99.90;;;;;;10061199;28;20037;-66
2024/01/07 00:08:09;;;;;;;4.78;2.95;;;7.80;99.90;;;;;;10060988;28;20053;-68
2024/01/07 00:13:00;;;;;;;6.88;2.88;;;7.80;99.90;;;;;;10066137;28;20057;-72
2024/01/07 00:17:51;;;;;;;5.20;2.95;;;7.80;99.90;;;;;;10061471;28;20033;-68
2024/01/07 00:22:41;;;;;;;6.25;2.97;;;7.80;99.90;;;;;;10060942;28;20148;-68
2024/01/07 00:27:32;;;;;;;5.45;2.85;;;7.80;99.90;;;;;;10060926;28;20021;-72
2024/01/07 00:32:22;;;;;;;6.65;3.30;;;7.80;99.90;;;;;;10060815;28;20034;-66
2024/01/07 00:37:13;;;;;;;5.93;2.80;;;7.80;99.90;;;;;;10059560;28;20121;-71
2024/01/07 00:42:04;;;;;;;5.82;2.97;;;7.80;99.90;;;;;;10060519;28;20041;-71
2024/01/07 00:46:54;;;;;;;4.82;3.15;;;7.80;99.90;;;;;;10060137;28;20033;-69
2024/01/07 00:51:45;;;;;;;6.82;2.90;;;7.80;99.90;;;;;;10059795;28;20029;-70
2024/01/07 00:56:36;;;;;;;5.43;3.13;;;7.70;99.90;;;;;;10060217;28;20030;-71
2024/01/07 01:01:26;;;;;;;6.00;2.88;;;7.70;99.90;;;;;;10060136;28;20043;-72
2024/01/07 01:06:17;;;;;;;6.45;3.10;;;7.60;99.90;;;;;;10059539;28;20033;-74
2024/01/07 01:11:11;;;;;;;4.28;2.13;;;7.60;99.90;;;;;;10060356;28;20120;-67
2024/01/07 01:16:01;;;;;;;6.03;2.92;;;7.60;99.90;;;;;;10059001;28;20430;-70
2024/01/07 01:20:52;;;;;;;6.13;2.80;;;7.70;99.90;;;;;;10057779;28;20047;-71
2024/01/07 01:25:43;;;;;;;5.65;3.42;;;7.60;99.90;;;;;;10057649;28;20045;-67
2024/01/07 01:30:34;;;;;;;5.03;2.60;;;7.60;99.90;;;;;;10089040;28;20641;-71
2024/01/07 01:35:25;;;;;;;5.93;3.00;;;7.50;99.90;;;;;;10065884;28;20112;-72
2024/01/07 01:40:17;;;;;;;6.97;3.28;;;7.50;99.90;;;;;;10057098;28;20610;-72
2024/01/07 01:45:08;;;;;;;6.72;3.22;;;7.50;99.90;;;;;;10054150;28;20526;-72
2024/01/07 01:49:59;;;;;;;5.05;3.58;;;7.50;99.90;;;;;;10089911;28;20033;-72
2024/01/07 01:54:49;;;;;;;6.00;2.70;;;7.50;99.90;;;;;;10057781;28;20025;-70
2024/01/07 01:59:41;;;;;;;6.35;3.55;;;7.40;99.90;;;;;;10057720;28;20029;-66
2024/01/07 02:04:33;;;;;;;5.38;3.20;;;7.50;99.90;;;;;;10056906;28;20087;-66
2024/01/07 02:09:23;;;;;;;7.55;4.15;;;7.50;99.90;;;;;;10058511;28;20116;-65
2024/01/07 02:14:14;;;;;;;5.95;3.45;;;7.50;99.90;;;;;;10061816;28;20108;-66
2024/01/07 02:19:06;;;;;;;7.57;3.78;;;7.50;99.90;;;;;;10056819;28;20423;-67
2024/01/07 02:23:56;;;;;;;9.63;3.88;;;7.50;99.90;;;;;;10056959;28;20098;-65
2024/01/07 02:28:47;;;;;;;6.97;2.75;;;7.50;99.90;;;;;;10056546;28;20033;-65
2024/01/07 02:33:38;;;;;;;7.93;3.70;;;7.50;99.90;;;;;;10056787;28;20033;-65
2024/01/07 02:38:28;;;;;;;6.53;3.90;;;7.40;99.90;;;;;;10055042;28;20038;-66
2024/01/07 02:43:19;;;;;;;6.75;3.33;;;7.40;99.90;;;;;;10056072;28;20135;-65
2024/01/07 02:48:10;;;;;;;6.15;3.50;;;7.40;99.90;;;;;;10056276;28;20037;-64
2024/01/07 02:53:00;;;;;;;5.90;3.08;;;7.50;99.90;;;;;;10054629;28;20025;-68
2024/01/07 02:57:51;;;;;;;6.03;2.60;;;7.40;99.90;;;;;;10054674;28;20094;-65
2024/01/07 03:02:41;;;;;;;5.85;2.85;;;7.30;99.90;;;;;;10060193;28;20411;-67
2024/01/07 03:07:32;;;;;;;5.78;3.05;;;7.30;99.90;;;;;;10063549;28;20564;-66
2024/01/07 03:12:22;;;;;;;3.53;2.30;;;7.30;99.90;;;;;;10069567;28;20037;-65
2024/01/07 03:17:15;;;;;;;4.10;1.70;;;7.30;99.90;;;;;;10064323;28;20026;-63
2024/01/07 03:22:07;;;;;;;4.72;2.03;;;7.20;99.90;;;;;;10063588;28;20057;-65
2024/01/07 03:26:57;;;;;;;2.15;1.13;;;7.20;99.90;;;;;;10063050;28;20029;-65
2024/01/07 03:31:48;;;;;;;2.60;1.27;;;7.10;99.90;;;;;;10063593;28;20149;-65
2024/01/07 03:36:38;;;;;;;2.55;1.30;;;7.00;99.90;;;;;;10062979;28;20025;-64
2024/01/07 03:41:29;;;;;;;1.58;0.90;;;7.00;99.90;;;;;;10062881;28;20107;-67
2024/01/07 03:46:20;;;;;;;1.40;0.75;;;7.10;99.90;;;;;;10060933;28;20518;-70
2024/01/07 03:51:11;;;;;;;1.85;1.40;;;7.10;99.90;;;;;;10064073;28;20029;-71
2024/01/07 03:56:02;;;;;;;1.77;0.98;;;7.20;99.90;;;;;;10063498;28;20033;-72
2024/01/07 04:00:52;;;;;;;1.65;1.20;;;7.20;99.90;;;;;;10061747;28;20037;-70
2024/01/07 04:05:45;;;;;;;3.38;1.70;;;7.20;99.90;;;;;;10061437;28;20098;-72
2024/01/07 04:10:37;;;;;;;2.10;1.45;;;7.20;99.90;;;;;;10061155;28;20021;-72
2024/01/07 04:15:28;;;;;;;3.78;1.80;;;7.10;99.90;;;;;;10060143;28;20499;-73
2024/01/07 04:20:18;;;;;;;4.80;2.67;;;7.10;99.90;;;;;;10061182;28;20045;-71
2024/01/07 04:25:10;;;;;;;3.22;2.17;;;7.10;99.90;;;;;;10059874;28;20033;-72
2024/01/07 04:30:02;;;;;;;6.50;2.42;;;7.10;99.90;;;;;;10056232;28;20026;-70
2024/01/07 04:34:52;;;;;;;5.72;2.53;;;7.10;99.90;;;;;;10060612;28;20084;-71
2024/01/07 04:39:43;;;;;;;4.22;2.45;;;7.10;99.90;;;;;;10060590;28;20021;-71
2024/01/07 04:44:34;;;;;;;5.57;2.92;;;7.00;99.90;;;;;;10060462;28;20128;-71
2024/01/07 04:49:24;;;;;;;4.55;2.58;;;7.10;99.90;;;;;;10059238;28;20113;-73
2024/01/07 04:54:15;;;;;;;5.93;3.20;;;7.00;99.90;;;;;;10059775;28;20112;-72
2024/01/07 04:59:05;;;;;;;4.50;2.53;;;7.10;99.90;;;;;;10060051;28;20028;-73
2024/01/07 05:03:56;;;;;;;8.15;3.03;;;7.20;99.90;;;;;;10059670;28;20038;-72
2024/01/07 05:08:47;;;;;;;5.32;2.88;;;7.20;99.90;;;;;;10059650;28;20033;-71
2024/01/07 05:13:37;;;;;;;5.85;2.72;;;7.10;99.90;;;;;;10059876;28;20068;-73
2024/01/07 05:18:28;;;;;;;5.47;3.22;;;7.10;99.90;;;;;;10058183;28;20063;-72
2024/01/07 05:23:19;;;;;;;6.30;2.95;;;7.10;99.90;;;;;;10061384;28;20107;-71
2024/01/07 05:28:10;;;;;;;9.65;3.70;;;7.10;99.90;;;;;;10059402;28;20063;-72
2024/01/07 05:33:00;;;;;;;6.13;3.25;;;7.10;99.90;;;;;;10058900;28;20095;-71
2024/01/07 05:37:51;;;;;;;6.53;3.83;;;7.20;99.90;;;;;;10058898;28;20164;-73
2024/01/07 05:42:42;;;;;;;6.97;3.75;;;7.20;99.90;;;;;;10057806;28;20551;-67
2024/01/07 05:47:32;;;;;;;6.28;3.28;;;7.20;99.90;;;;;;10053828;28;20615;-70
2024/01/07 05:52:24;;;;;;;7.95;4.18;;;7.20;99.90;;;;;;10056603;28;20052;-65
2024/01/07 05:57:14;;;;;;;8.15;3.50;;;7.10;99.90;;;;;;10057136;28;20031;-67
2024/01/07 06:02:05;;;;;;;8.25;4.47;;;7.10;99.90;;;;;;10057758;28;20079;-67
2024/01/07 06:06:55;;;;;;;6.15;3.40;;;7.10;99.90;;;;;;10057514;28;20061;-71
2024/01/07 06:11:46;;;;;;;7.80;3.60;;;7.00;99.90;;;;;;10058389;28;20132;-69
2024/01/07 06:16:37;;;;;;;4.85;3.03;;;7.00;99.90;;;;;;10057473;28;20241;-71
2024/01/07 06:21:28;;;;;;;7.13;4.00;;;7.00;99.90;;;;;;10056979;28;20076;-68
2024/01/07 06:26:18;;;;;;;6.43;3.30;;;7.00;99.90;;;;;;10056741;28;20116;-70
2024/01/07 06:31:09;;;;;;;5.05;3.03;;;7.00;99.90;;;;;;10057082;28;20372;-68
2024/01/07 06:36:00;;;;;;;5.28;2.80;;;6.90;99.90;;;;;;10055437;28;20033;-66
2024/01/07 06:40:51;;;;;;;5.47;3.03;;;6.90;99.90;;;;;;10057473;28;20059;-67
2024/01/07 06:45:43;;;;;;;4.90;2.45;;;6.80;99.90;;;;;;10059913;28;20060;-65
2024/01/07 06:50:34;;;;;;;3.05;2.20;;;6.80;99.90;;;;;;10056111;28;20121;-66
2024/01/07 06:55:25;;;;;;;4.07;2.00;;;6.90;99.90;;;;;;10055230;28;20112;-66
2024/01/07 07:00:15;;;;;;;3.25;2.08;;;6.80;99.90;;;;;;10055966;28;20450;-65
2024/01/07 07:05:07;;;;;;;6.63;2.78;;;6.80;99.90;;;;;;10056207;28;20033;-65
2024/01/07 07:09:58;;;;;;;3.38;1.92;;;6.80;99.90;;;;;;10055790;28;20017;-65
2024/01/07 07:14:49;;;;;;;4.05;2.42;;;6.90;99.90;;;;;;10058225;28;20395;-65
2024/01/07 07:19:40;;;;;;;4.68;2.92;;;6.90;99.90;;;;;;10055033;28;20053;-68
2024/01/07 07:24:30;;;;;;;4.35;2.63;;;6.90;99.90;;;;;;10054981;28;20056;-69
2024/01/07 07:29:21;;;;;;;5.63;2.95;;;6.90;99.90;;;;;;10057208;28;20420;-68
2024/01/07 07:34:12;;;;;;;5.40;2.63;;;7.00;99.90;;;;;;10054818;28;20578;-67
2024/01/07 07:39:03;;;;;;;6.10;3.55;;;7.00;99.90;;;;;;10055461;28;20044;-69
2024/01/07 07:43:54;;;;;;;7.20;3.10;;;6.90;99.90;;;;;;10054983;28;20045;-72
2024/01/07 07:48:45;;;;;;;6.90;2.95;;;7.00;99.90;;;;;;10060617;28;20026;-71
2024/01/07 07:53:39;;;;;;;6.22;3.00;;;7.00;99.90;;;;;;10062312;28;20045;-71
2024/01/07 07:58:29;;;;;;;5.45;3.08;;;7.00;99.90;;;;;;10064782;28;20581;-72
2024/01/07 08:03:20;;;;;;;3.65;2.63;;;7.00;99.90;;;;;;10061704;28;20107;-72
2024/01/07 08:08:10;;;;;;;6.88;3.13;;;7.00;99.90;;;;;;10062567;28;20083;-69
2024/01/07 08:13:01;;;;;;;6.78;3.15;;;7.00;99.90;;;;;;10061756;28;20033;-71
2024/01/07 08:17:52;;;;;;;4.07;3.05;;;7.00;99.90;;;;;;10062054;28;20041;-72
2024/01/07 08:22:42;;;;;;;6.47;3.50;;;6.90;99.90;;;;;;10062311;28;20102;-73
2024/01/07 08:27:34;;;;;;;5.50;3.20;;;7.00;99.90;;;;;;10058276;28;20537;-72
2024/01/07 08:32:25;;;;;;;4.88;3.10;;;6.90;99.90;;;;;;10059847;28;20506;-72
2024/01/07 08:37:16;;;;;;;5.75;3.47;;;6.90;99.90;;;;;;10060750;28;20033;-70
2024/01/07 08:42:06;;;;;;;5.65;3.25;;;6.90;99.90;;;;;;10059989;28;20057;-65
2024/01/07 08:46:57;;;;;;;5.13;2.92;;;6.90;99.90;;;;;;10061908;28;20064;-65
2024/01/07 08:51:48;;;;;;;6.40;3.08;;;6.80;99.90;;;;;;10059852;28;20132;-65
2024/01/07 08:56:39;;;;;;;4.30;2.67;;;6.80;99.90;;;;;;10053311;28;20080;-65
2024/01/07 09:01:30;;;;;;;4.63;3.47;;;6.70;99.90;;;;;;10034310;28;20026;-66
2024/01/07 09:06:21;;;;;;;5.38;2.83;;;6.80;99.90;;;;;;10052657;28;20041;-65
2024/01/07 09:11:12;;;;;;;5.32;3.53;;;6.90;99.90;;;;;;10051386;28;20029;-65
2024/01/07 09:16:03;;;;;;;4.15;2.67;;;6.80;99.90;;;;;;10058018;28;20037;-64
2024/01/07 09:20:54;;;;;;;7.35;3.47;;;6.80;99.90;;;;;;10057734;28;20439;-66
2024/01/07 09:25:46;;;;;;;8.45;3.75;;;6.80;99.90;;;;;;10059301;28;20037;-65
2024/01/07 09:30:36;;;;;;;8.55;3.53;;;6.80;99.90;;;;;;10059323;28;20034;-66
2024/01/07 09:35:27;;;;;;;6.60;3.72;;;6.80;99.90;;;;;;10054054;28;20021;-68
2024/01/07 09:40:19;;;;;;;8.45;4.15;;;6.80;99.90;;;;;;10058283;28;20132;-68
2024/01/07 09:45:13;;;;;;;8.13;3.72;;;6.80;99.90;;;;;;10058605;28;20029;-69
2024/01/07 09:50:05;;;;;;;7.22;4.00;;;6.70;99.90;;;;;;10057876;28;20060;-68
2024/01/07 09:55:00;;;;;;;8.45;3.65;;;6.80;99.90;;;;;;10052528;28;20029;-65
2024/01/07 09:59:50;;;;;;;9.17;5.43;;;6.80;99.90;;;;;;10048802;28;20033;-69
2024/01/07 10:04:41;;;;;;;6.68;3.75;;;6.80;99.90;;;;;;10051296;28;20094;-65
2024/01/07 10:09:33;;;;;;;8.48;4.30;;;6.70;99.90;;;;;;10057691;28;20029;-71
2024/01/07 10:14:25;;;;;;;7.43;4.18;;;6.70;99.90;;;;;;10059341;28;20037;-67
2024/01/07 10:19:24;;;;;;;9.18;3.47;;;6.80;99.90;;;;;;10060265;28;20037;-66
2024/01/07 10:24:14;;;;;;;9.07;4.57;;;6.80;99.90;;;;;;10056790;28;20052;-68
2024/01/07 10:29:07;;;;;;;10.07;4.90;;;6.90;99.90;;;;;;10056963;28;20030;-65
2024/01/07 10:33:57;;;;;;;8.95;4.60;;;6.90;99.90;;;;;;10056516;28;20037;-68
2024/01/07 10:38:48;;;;;;;7.85;3.83;;;6.80;99.90;;;;;;10056167;28;20667;-64
2024/01/07 10:43:41;;;;;;;9.32;5.18;;;6.90;99.90;;;;;;10055733;28;20038;-65
2024/01/07 10:48:37;;;;;;;8.60;4.50;;;6.80;99.90;;;;;;10053348;28;20060;-65
2024/01/07 10:53:36;;;;;;;8.82;4.35;;;6.90;99.90;;;;;;10053147;28;20462;-66
2024/01/07 10:58:27;;;;;;;9.02;5.53;;;6.80;99.90;;;;;;10052854;28;20079;-65
2024/01/07 11:03:45;;;;;;;8.68;5.03;;;6.80;99.90;;;;;;10054171;28;20457;-65
2024/01/07 11:08:52;;;;;;;9.23;4.88;;;6.80;99.90;;;;;;10043064;28;20371;-65
2024/01/07 11:13:42;;;;;;;8.50;3.88;;;6.80;99.90;;;;;;10041104;28;20037;-65
2024/01/07 11:18:33;;;;;;;7.72;4.32;;;6.70;99.90;;;;;;10052493;28;20099;-65
2024/01/07 11:23:40;;;;;;;7.32;3.85;;;6.70;99.90;;;;;;10055481;28;20110;-64
2024/01/07 11:28:49;;;;;;;9.05;4.68;;;6.60;99.90;;;;;;10063665;28;20112;-66
2024/01/07 11:33:43;;;;;;;8.82;4.35;;;6.60;99.90;;;;;;10062676;28;20656;-66
2024/01/07 11:38:35;;;;;;;7.18;4.55;;;6.50;99.90;;;;;;10062927;28;20055;-65
2024/01/07 11:43:26;;;;;;;10.05;3.92;;;6.50;99.90;;;;;;10063395;28;20475;-66
2024/01/07 11:48:16;;;;;;;9.88;4.32;;;6.50;99.90;;;;;;10050970;28;20022;-69
2024/01/07 11:53:08;;;;;;;9.43;5.15;;;6.60;99.90;;;;;;10062064;28;20068;-68
2024/01/07 11:58:02;;;;;;;8.30;5.22;;;6.60;99.90;;;;;;10062341;28;20041;-67
2024/01/07 12:02:52;;;;;;;12.38;5.00;;;6.70;99.90;;;;;;10061939;28;20052;-65
2024/01/07 12:07:43;;;;;;;8.70;5.10;;;6.80;99.90;;;;;;10062072;28;20029;-64
2024/01/07 12:12:34;;;;;;;7.93;4.45;;;6.80;99.90;;;;;;10063243;28;20056;-65
2024/01/07 12:17:25;;;;;;;8.63;4.15;;;6.70;99.90;;;;;;10061851;28;20021;-67
2024/01/07 12:22:17;;;;;;;6.95;3.90;;;6.60;99.90;;;;;;10059003;28;20049;-66
2024/01/07 12:27:08;;;;;;;6.88;3.97;;;6.50;99.90;;;;;;10060153;28;20053;-68
2024/01/07 12:32:00;;;;;;;7.35;5.00;;;6.70;99.90;;;;;;10061965;28;20033;-70
2024/01/07 12:36:51;;;;;;;7.55;4.05;;;6.60;99.90;;;;;;10060807;28;20028;-68
2024/01/07 12:41:42;;;;;;;8.57;5.13;;;6.50;99.90;;;;;;10051342;28;20037;-72
2024/01/07 12:46:33;;;;;;;6.47;4.10;;;6.50;99.90;;;;;;10061954;28;21344;-72
2024/01/07 12:51:23;;;;;;;10.70;3.78;;;6.50;99.90;;;;;;10072778;28;20621;-70
2024/01/07 12:56:14;;;;;;;6.40;3.28;;;6.40;99.90;;;;;;10074583;28;20029;-66
2024/01/07 13:01:05;;;;;;;6.15;4.35;;;6.30;99.90;;;;;;10071760;28;20025;-65
2024/01/07 13:05:55;;;;;;;9.98;4.35;;;6.40;99.90;;;;;;10067915;28;20400;-69
2024/01/07 13:10:46;;;;;;;6.43;3.42;;;6.40;99.90;;;;;;10058396;28;20515;-66
2024/01/07 13:15:37;;;;;;;7.65;3.92;;;6.30;99.90;;;;;;10056807;28;20029;-70
2024/01/07 13:20:27;;;;;;;9.30;3.22;;;6.40;99.90;;;;;;10055463;28;20041;-67
2024/01/07 13:25:18;;;;;;;6.35;3.92;;;6.40;99.90;;;;;;10058386;28;20064;-68
2024/01/07 13:30:09;;;;;;;5.72;3.50;;;6.30;99.90;;;;;;10059194;28;20112;-67
2024/01/07 13:35:00;;;;;;;4.40;2.97;;;6.20;99.90;;;;;;10057389;28;20036;-66
2024/01/07 13:39:51;;;;;;;6.65;3.58;;;6.30;99.90;;;;;;10059097;28;20424;-69
2024/01/07 13:44:46;;;;;;;6.75;3.88;;;6.20;99.90;;;;;;10058221;28;20041;-73
2024/01/07 13:49:37;;;;;;;5.67;3.83;;;6.20;99.90;;;;;;10046975;28;20024;-71
2024/01/07 13:54:28;;;;;;;8.05;3.85;;;6.30;99.90;;;;;;10058124;28;20022;-67
2024/01/07 13:59:19;;;;;;;5.80;3.70;;;6.30;99.90;;;;;;10058533;28;20032;-72
2024/01/07 14:04:09;;;;;;;7.75;3.90;;;6.10;99.90;;;;;;10052161;28;20034;-66
2024/01/07 14:09:00;;;;;;;6.47;3.45;;;6.10;99.90;;;;;;10051272;28;20125;-64
2024/01/07 14:13:50;;;;;;;6.90;3.47;;;6.10;99.90;;;;;;10063418;28;20503;-70
2024/01/07 14:18:41;;;;;;;3.58;2.78;;;6.20;99.90;;;;;;10053845;28;20048;-64
2024/01/07 14:23:33;;;;;;;6.05;3.10;;;6.20;99.90;;;;;;10053724;28;20040;-66
2024/01/07 14:28:24;;;;;;;4.95;2.25;;;6.10;99.90;;;;;;10051790;28;20038;-68
2024/01/07 14:33:16;;;;;;;5.57;2.78;;;6.20;99.90;;;;;;10055478;28;20433;-65
2024/01/07 14:38:07;;;;;;;7.28;3.30;;;6.00;99.90;;;;;;10054526;28;20033;-70
2024/01/07 14:42:58;;;;;;;5.32;2.88;;;6.00;99.90;;;;;;10051989;28;20041;-73
2024/01/07 14:47:48;;;;;;;7.90;3.78;;;6.10;99.90;;;;;;10048419;28;20026;-71
2024/01/07 14:52:39;;;;;;;3.55;2.75;;;6.00;99.90;;;;;;10056301;28;20033;-70
2024/01/07 14:57:30;;;;;;;4.63;3.03;;;6.00;99.90;;;;;;10076580;28;20017;-70
2024/01/07 15:02:21;;;;;;;5.32;3.13;;;6.00;99.90;;;;;;10074458;28;20048;-71
2024/01/07 15:07:11;;;;;;;6.93;3.28;;;5.90;99.90;;;;;;10074095;28;20035;-72
2024/01/07 15:12:02;;;;;;;5.85;3.35;;;5.90;99.90;;;;;;10068256;28;20102;-68
2024/01/07 15:16:54;;;;;;;6.07;2.92;;;5.80;99.90;;;;;;10068723;28;20029;-68
2024/01/07 15:21:44;;;;;;;5.38;2.80;;;5.80;99.90;;;;;;10074905;28;20045;-72
2024/01/07 15:26:35;;;;;;;4.20;2.83;;;5.70;99.90;;;;;;10071890;28;20066;-66
2024/01/07 15:31:26;;;;;;;6.57;3.53;;;5.70;99.90;;;;;;10066963;28;20029;-69
2024/01/07 15:36:17;;;;;;;5.13;3.10;;;5.70;99.90;;;;;;10059164;28;20026;-67
2024/01/07 15:41:08;;;;;;;4.80;2.85;;;5.70;99.90;;;;;;10064704;28;20029;-69
2024/01/07 15:45:59;;;;;;;6.13;4.80;;;5.60;99.90;;;;;;10048802;28;20029;-66
2024/01/07 15:50:50;;;;;;;8.32;3.58;;;5.60;99.90;;;;;;10037322;28;20874;-65
2024/01/07 15:55:40;;;;;;;6.28;3.10;;;5.70;99.90;;;;;;10032836;28;20029;-67
2024/01/07 16:00:31;;;;;;;7.75;4.07;;;5.60;99.90;;;;;;10043551;28;20064;-65
2024/01/07 16:05:22;;;;;;;7.35;3.92;;;5.60;99.90;;;;;;10046577;28;20507;-64
2024/01/07 16:10:13;;;;;;;4.90;3.17;;;5.50;99.90;;;;;;10040653;28;20029;-64
2024/01/07 16:15:03;;;;;;;6.85;3.20;;;5.50;99.90;;;;;;10057241;28;20471;-65
2024/01/07 16:19:54;;;;;;;5.13;3.05;;;5.50;99.90;;;;;;10040813;28;20049;-66
2024/01/07 16:24:45;;;;;;;8.85;3.90;;;5.50;99.90;;;;;;10057111;28;20049;-65
2024/01/07 16:29:36;;;;;;;6.03;3.08;;;5.40;99.90;;;;;;10031041;28;20033;-66
2024/01/07 16:34:27;;;;;;;6.13;3.33;;;5.50;99.90;;;;;;10062855;28;20033;-68
2024/01/07 16:39:18;;;;;;;6.10;3.22;;;5.40;99.90;;;;;;10059513;28;20446;-66
2024/01/07 16:44:09;;;;;;;6.90;4.00;;;5.40;99.90;;;;;;10043440;28;20087;-66
2024/01/07 16:49:00;;;;;;;8.63;4.18;;;5.40;99.90;;;;;;10037789;28;20056;-65
2024/01/07 16:53:50;;;;;;;8.38;3.28;;;5.30;99.90;;;;;;10035511;28;20193;-63
2024/01/07 16:58:41;;;;;;;6.28;2.92;;;5.30;99.90;;;;;;10043083;28;20725;-65
2024/01/07 17:03:32;;;;;;;7.47;3.78;;;5.20;99.90;;;;;;10059436;28;20045;-63
2024/01/07 17:08:23;;;;;;;7.35;4.88;;;5.20;99.90;;;;;;10059793;28;20045;-68
2024/01/07 17:13:13;;;;;;;7.40;4.40;;;5.30;99.90;;;;;;10061193;28;20044;-64
2024/01/07 17:18:04;;;;;;;7.50;3.33;;;5.20;99.90;;;;;;10059815;28;20064;-64
2024/01/07 17:22:55;;;;;;;10.20;3.75;;;5.10;99.90;;;;;;10061755;28;20045;-64
2024/01/07 17:27:45;;;;;;;8.95;4.20;;;5.10;99.90;;;;;;10058855;28;20033;-63
2024/01/07 17:32:36;;;;;;;6.10;3.30;;;5.10;99.90;;;;;;10056727;28;20050;-65
2024/01/07 17:37:27;;;;;;;6.40;3.90;;;5.10;99.90;;;;;;10059211;28;20025;-65
2024/01/07 17:42:18;;;;;;;7.28;3.95;;;5.00;99.90;;;;;;10057497;28;20707;-63
2024/01/07 17:47:08;;;;;;;9.63;3.58;;;4.90;99.90;;;;;;10059755;28;20399;-65
2024/01/07 17:51:59;;;;;;;6.40;3.20;;;4.90;99.90;;;;;;10059423;28;20125;-68
2024/01/07 17:56:52;;;;;;;7.25;3.90;;;4.90;99.90;;;;;;10058200;28;20137;-67
2024/01/07 18:01:47;;;;;;;8.43;3.78;;;4.80;99.90;;;;;;10058165;28;20045;-66
2024/01/07 18:06:37;;;;;;;9.15;4.03;;;4.50;99.90;;;;;;10057645;28;20038;-66
2024/01/07 18:11:28;;;;;;;8.23;3.05;;;4.30;99.90;;;;;;10062069;28;20106;-63
2024/01/07 18:16:19;;;;;;;6.53;3.70;;;4.30;99.90;;;;;;10057280;28;20017;-63
2024/01/07 18:21:13;;;;;;;6.45;3.47;;;4.20;99.90;;;;;;10056776;28;20695;-64
2024/01/07 18:26:04;;;;;;;7.55;3.13;;;4.30;99.90;;;;;;10058092;28;20160;-65
2024/01/07 18:30:55;;;;;;;5.82;2.78;;;4.30;99.90;;;;;;10054612;28;20116;-63
2024/01/07 18:35:45;;;;;;;4.10;2.90;;;4.30;99.90;;;;;;10041276;28;20033;-64
2024/01/07 18:40:37;;;;;;;4.82;2.90;;;4.20;99.90;;;;;;10052988;28;20121;-71
2024/01/07 18:45:29;;;;;;;4.53;2.40;;;4.10;99.90;;;;;;10040056;28;20029;-66
2024/01/07 18:50:19;;;;;;;5.38;2.63;;;4.10;99.90;;;;;;10022577;28;20054;-63
2024/01/07 18:55:11;;;;;;;4.60;2.40;;;4.10;99.90;;;;;;10022256;28;20061;-62
2024/01/07 19:00:03;;;;;;;5.80;3.15;;;4.00;99.90;;;;;;10034259;28;20028;-64
2024/01/07 19:04:55;;;;;;;4.78;3.40;;;3.90;99.90;;;;;;10033582;28;20321;-68
2024/01/07 19:09:46;;;;;;;4.93;2.70;;;3.90;99.90;;;;;;10021131;28;20037;-69
2024/01/07 19:14:36;;;;;;;3.92;2.55;;;3.90;99.90;;;;;;10031357;28;20044;-65
2024/01/07 19:19:27;;;;;;;4.40;2.75;;;3.90;99.90;;;;;;10025639;28;20093;-67
2024/01/07 19:24:18;;;;;;;5.50;2.20;;;3.90;99.90;;;;;;10022858;28;20041;-76
2024/01/07 19:29:08;;;;;;;3.58;2.38;;;3.80;99.90;;;;;;10023837;28;20037;-65
2024/01/07 19:33:59;;;;;;;3.55;2.00;;;3.70;99.90;;;;;;10032082;28;20086;-73
2024/01/07 19:38:49;;;;;;;2.78;1.80;;;3.80;99.90;;;;;;10050117;28;20168;-69
2024/01/07 19:43:40;;;;;;;5.03;2.10;;;3.70;99.90;;;;;;10056360;28;20046;-65
2024/01/07 19:48:31;;;;;;;3.05;1.90;;;3.50;99.90;;;;;;10055450;28;20503;-72
2024/01/07 19:53:21;;;;;;;3.72;2.00;;;3.60;99.90;;;;;;10049943;28;20041;-71
2024/01/07 19:58:16;;;;;;;3.03;1.80;;;3.60;99.90;;;;;;10054025;28;20079;-71
2024/01/07 20:03:06;;;;;;;3.22;2.00;;;3.50;99.90;;;;;;10052660;28;20419;-70
2024/01/07 20:07:57;;;;;;;2.97;1.65;;;3.40;99.90;;;;;;10053085;28;20037;-69
2024/01/07 20:12:48;;;;;;;4.32;2.55;;;3.30;99.90;;;;;;10056697;28;20041;-70
2024/01/07 20:17:38;;;;;;;2.65;1.88;;;3.30;99.90;;;;;;10056073;28;20038;-65
2024/01/07 20:22:29;;;;;;;3.88;1.83;;;3.20;99.90;;;;;;10052241;28;20084;-65
2024/01/07 20:27:20;;;;;;;3.47;1.90;;;3.20;99.90;;;;;;10054812;28;20045;-66
2024/01/07 20:32:11;;;;;;;3.13;1.60;;;3.30;99.90;;;;;;10049962;28;20036;-64
2024/01/07 20:37:01;;;;;;;2.00;1.80;;;3.30;99.90;;;;;;10050315;28;20087;-65
2024/01/07 20:41:52;;;;;;;3.53;1.50;;;3.20;99.90;;;;;;10051556;28;20041;-67
2024/01/07 20:46:43;;;;;;;2.40;1.17;;;3.20;99.90;;;;;;10042585;28;20024;-71
2024/01/07 20:51:34;;;;;;;2.28;1.35;;;3.10;99.90;;;;;;10046038;28;20037;-65
2024/01/07 20:56:25;;;;;;;2.17;1.48;;;3.00;99.90;;;;;;10041579;28;20030;-70
2024/01/07 21:01:15;;;;;;;3.22;1.50;;;3.00;99.90;;;;;;10050981;28;20033;-63
2024/01/07 21:06:06;;;;;;;3.53;1.52;;;3.20;99.90;;;;;;10046518;28;20138;-65
2024/01/07 21:10:57;;;;;;;2.55;1.40;;;3.10;99.90;;;;;;10041136;28;20066;-63
2024/01/07 21:15:47;;;;;;;2.63;1.35;;;3.10;99.90;;;;;;10051971;28;20114;-63
2024/01/07 21:20:39;;;;;;;3.92;1.35;;;3.00;99.90;;;;;;10046153;28;20412;-73
2024/01/07 21:25:29;;;;;;;1.60;1.02;;;2.80;99.90;;;;;;10052600;28;20026;-64
2024/01/07 21:30:20;;;;;;;3.65;1.45;;;2.70;99.90;;;;;;10051376;28;20030;-63
2024/01/07 21:35:12;;;;;;;2.13;1.33;;;2.70;99.90;;;;;;10045063;28;20037;-70
2024/01/07 21:40:04;;;;;;;2.28;1.60;;;2.80;99.90;;;;;;10031194;28;20033;-67
2024/01/07 21:44:56;;;;;;;2.33;1.35;;;2.80;99.90;;;;;;10040485;28;20034;-67
2024/01/07 21:49:47;;;;;;;1.83;1.05;;;2.80;99.90;;;;;;10040358;28;20034;-64
2024/01/07 21:54:38;;;;;;;2.65;1.85;;;2.80;99.90;;;;;;10052074;28;20203;-63
2024/01/07 21:59:29;;;;;;;3.20;1.20;;;2.70;99.90;;;;;;10038164;28;20033;-70
2024/01/07 22:04:20;;;;;;;2.10;1.02;;;2.60;99.90;;;;;;10050868;28;20045;-64
2024/01/07 22:09:11;;;;;;;2.55;1.00;;;2.70;99.90;;;;;;10029359;28;20045;-64
2024/01/07 22:14:01;;;;;;;2.25;1.23;;;2.70;99.90;;;;;;10047181;28;20065;-63
2024/01/07 22:18:52;;;;;;;2.15;1.20;;;2.60;99.90;;;;;;10038700;28;20147;-63
2024/01/07 22:23:42;;;;;;;1.58;1.00;;;2.60;99.90;;;;;;10034505;28;20430;-64
2024/01/07 22:28:33;;;;;;;2.00;0.93;;;2.60;99.90;;;;;;10034613;28;20040;-62
2024/01/07 22:33:24;;;;;;;3.28;1.60;;;2.70;99.90;;;;;;10027989;28;20022;-65
2024/01/07 22:38:14;;;;;;;1.35;1.02;;;2.60;99.90;;;;;;10034213;28;20104;-62
2024/01/07 22:43:05;;;;;;;3.00;1.50;;;2.50;99.90;;;;;;10065097;28;20033;-64
2024/01/07 22:47:56;;;;;;;1.27;0.93;;;2.40;99.90;;;;;;10028188;28;20030;-66
2024/01/07 22:52:47;;;;;;;2.30;1.52;;;2.40;99.90;;;;;;10030172;28;20037;-63
2024/01/07 22:57:37;;;;;;;1.45;1.23;;;2.40;99.90;;;;;;10022793;28;20037;-64
2024/01/07 23:02:29;;;;;;;2.67;1.20;;;2.50;99.90;;;;;;10033879;28;20434;-62
2024/01/07 23:07:20;;;;;;;1.63;1.05;;;2.50;99.90;;;;;;10056156;28;20025;-66
2024/01/07 23:12:10;;;;;;;2.13;1.33;;;2.40;99.90;;;;;;10056282;28;20029;-63
2024/01/07 23:17:01;;;;;;;2.78;1.20;;;2.40;99.90;;;;;;10056787;28;20105;-64
2024/01/07 23:21:52;;;;;;;2.72;1.65;;;2.30;99.90;;;;;;10063300;28;20057;-63
2024/01/07 23:26:43;;;;;;;1.90;0.85;;;2.30;99.90;;;;;;10067677;28;20033;-71
2024/01/07 23:31:33;;;;;;;3.35;1.50;;;2.30;99.90;;;;;;10062013;28;20449;-67
2024/01/07 23:36:24;;;;;;;2.47;1.30;;;2.30;99.90;;;;;;10063084;28;20037;-66
2024/01/07 23:41:15;;;;;;;3.63;1.33;;;2.50;99.90;;;;;;10061876;28;20541;-70
2024/01/07 23:46:06;;;;;;;2.30;1.20;;;2.40;99.90;;;;;;10062683;28;20041;-72
2024/01/07 23:50:56;;;;;;;1.98;1.25;;;2.40;99.90;;;;;;10062986;28;20416;-71
2024/01/07 23:55:47;;;;;;;1.80;1.00;;;2.30;99.90;;;;;;10062676;28;20033;-65
